Terminal Aerodrome Forecast
Issued by NWS

Home | Current Version | Previous Version | Text Only | Print | Product List | Glossary On
Versions: 1 2 3 4 5 6 7 8 9 10 11 12 13
000
FTUS44 KLUB 240520
TAFCDS
TAF
KCDS 240520Z 2406/2506 20025G35KT P6SM FEW050 SCT250
      TEMPO 2406/2407 VRB30G40KT 5SM TSRA BKN050CB
     FM240700 24017KT P6SM FEW050 BKN100
     FM241900 28032G45KT 4SM BLDU BKN060
     FM250100 33023KT P6SM SKC=

USA.gov is the U.S. government's official web portal to all federal, state and local government web resources and services.